createdAt,value
2018-09-21T00:00:00.561Z,11.37
2018-09-21T00:02:29.033Z,9.33
2018-09-21T00:04:57.673Z,9.80
2018-09-21T00:07:27.088Z,10.43
2018-09-21T00:09:55.866Z,11.27
2018-09-21T00:12:24.795Z,8.40
2018-09-21T00:14:53.309Z,6.73
2018-09-21T00:17:22.113Z,10.13
2018-09-21T00:19:50.793Z,13.43
2018-09-21T00:22:19.261Z,10.17
2018-09-21T00:24:47.714Z,9.87
2018-09-21T00:27:16.447Z,8.53
2018-09-21T00:29:45.132Z,9.10
2018-09-21T00:32:14.594Z,10.43
2018-09-21T00:34:43.507Z,6.30
2018-09-21T00:37:12.650Z,9.03
2018-09-21T00:39:41.137Z,11.97
2018-09-21T00:42:10.098Z,4.93
2018-09-21T00:44:38.569Z,10.87
2018-09-21T00:47:07.078Z,13.13
2018-09-21T00:49:35.858Z,7.43
2018-09-21T00:52:04.389Z,7.97
2018-09-21T00:54:32.856Z,8.93
2018-09-21T00:57:01.889Z,7.87
2018-09-21T00:59:30.379Z,10.23
2018-09-21T01:01:59.049Z,7.83
2018-09-21T01:04:32.256Z,11.50
2018-09-21T01:07:00.782Z,5.80
2018-09-21T01:09:29.989Z,6.80
2018-09-21T01:11:59.144Z,10.70
2018-09-21T01:14:27.610Z,11.97
2018-09-21T01:16:56.318Z,7.23
2018-09-21T01:19:24.806Z,6.50
2018-09-21T01:21:53.301Z,6.13
2018-09-21T01:24:21.873Z,11.03
2018-09-21T01:26:50.503Z,8.37
2018-09-21T01:29:18.988Z,10.10
2018-09-21T01:31:48.382Z,9.50
2018-09-21T01:34:17.011Z,5.73
2018-09-21T01:36:45.570Z,8.83
2018-09-21T01:39:14.397Z,7.40
2018-09-21T01:41:42.960Z,7.47
2018-09-21T01:44:11.401Z,9.07
2018-09-21T01:46:40.168Z,5.90
2018-09-21T01:49:09.209Z,9.97
2018-09-21T01:51:37.675Z,9.20
2018-09-21T01:54:06.568Z,6.53
2018-09-21T01:56:35.066Z,5.37
2018-09-21T01:59:03.580Z,7.20
2018-09-21T02:01:32.281Z,9.43
2018-09-21T02:04:00.837Z,9.03
2018-09-21T02:06:29.347Z,5.33
2018-09-21T02:08:58.013Z,5.33
2018-09-21T02:11:26.581Z,10.83
2018-09-21T02:13:55.207Z,8.60
2018-09-21T02:16:24.187Z,9.60
2018-09-21T02:18:52.677Z,6.47
2018-09-21T02:21:21.208Z,7.50
2018-09-21T02:23:50.158Z,7.57
2018-09-21T02:26:18.717Z,9.37
2018-09-21T02:28:47.606Z,10.37
2018-09-21T02:31:16.502Z,10.07
2018-09-21T02:33:44.969Z,6.90
2018-09-21T02:36:13.462Z,8.23
2018-09-21T02:38:42.357Z,7.77
2018-09-21T02:41:10.848Z,6.70
2018-09-21T02:43:39.325Z,4.77
2018-09-21T02:46:07.921Z,8.20
2018-09-21T02:48:36.624Z,11.00
2018-09-21T02:51:05.169Z,8.80
2018-09-21T02:53:34.174Z,10.60
2018-09-21T02:56:02.670Z,4.90
2018-09-21T02:58:31.113Z,9.90
2018-09-21T03:00:59.878Z,9.20
2018-09-21T03:03:28.317Z,6.90
2018-09-21T03:05:56.813Z,10.20
2018-09-21T03:08:25.457Z,9.07
2018-09-21T03:10:54.050Z,9.20
2018-09-21T03:13:22.565Z,7.10
2018-09-21T03:15:51.600Z,8.03
2018-09-21T03:18:20.077Z,9.20
2018-09-21T03:20:48.560Z,8.87
2018-09-21T03:23:17.574Z,7.37
2018-09-21T03:25:46.060Z,7.17
2018-09-21T03:28:14.529Z,7.03
2018-09-21T03:30:43.840Z,9.07
2018-09-21T03:33:12.325Z,6.37
2018-09-21T03:35:42.121Z,7.10
2018-09-21T03:38:10.824Z,6.40
2018-09-21T03:40:39.708Z,8.67
2018-09-21T03:43:09.024Z,7.57
2018-09-21T03:45:37.995Z,8.90
2018-09-21T03:48:06.994Z,8.47
2018-09-21T03:50:36.118Z,9.43
2018-09-21T03:53:04.662Z,9.50
2018-09-21T03:55:33.200Z,6.97
2018-09-21T03:58:01.709Z,9.30
2018-09-21T04:00:30.420Z,5.13
2018-09-21T04:02:58.900Z,11.97
2018-09-21T04:05:27.359Z,5.07
2018-09-21T04:07:56.550Z,10.20
2018-09-21T04:10:25.130Z,5.53
2018-09-21T04:12:53.614Z,5.67
2018-09-21T04:15:22.151Z,5.67
2018-09-21T04:17:50.911Z,5.90
2018-09-21T04:20:19.382Z,6.97
2018-09-21T04:22:58.167Z,7.17
2018-09-21T04:25:27.312Z,5.43
2018-09-21T04:27:56.175Z,7.80
2018-09-21T04:30:25.218Z,8.73
2018-09-21T04:32:53.674Z,6.53
2018-09-21T04:35:22.454Z,5.63
2018-09-21T04:37:51.274Z,8.13
2018-09-21T04:40:19.803Z,9.97
2018-09-21T04:42:48.398Z,8.83
2018-09-21T04:45:16.885Z,9.10
2018-09-21T04:47:45.313Z,6.60
2018-09-21T04:50:13.937Z,9.23
2018-09-21T04:52:42.594Z,9.40
2018-09-21T04:55:11.161Z,6.43
2018-09-21T04:57:40.103Z,7.43
2018-09-21T05:00:09.454Z,9.27
2018-09-21T05:02:38.002Z,6.90
2018-09-21T05:05:06.998Z,6.60
2018-09-21T05:07:35.506Z,9.67
2018-09-21T05:10:04.045Z,9.97
2018-09-21T05:12:32.569Z,9.63
2018-09-21T05:15:01.040Z,9.07
2018-09-21T05:17:29.509Z,8.37
2018-09-21T05:19:58.218Z,8.37
2018-09-21T05:22:26.789Z,9.03
2018-09-21T05:24:55.238Z,8.90
2018-09-21T05:27:24.262Z,10.13
2018-09-21T05:29:52.814Z,10.57
2018-09-21T05:32:21.411Z,12.67
2018-09-21T05:34:50.164Z,12.33
2018-09-21T05:37:18.566Z,12.00
2018-09-21T05:39:46.997Z,10.27
2018-09-21T05:42:15.831Z,10.90
2018-09-21T05:44:44.454Z,9.17
2018-09-21T05:47:13.032Z,13.00
2018-09-21T05:49:41.505Z,14.97
2018-09-21T05:52:10.889Z,13.87
2018-09-21T05:54:39.346Z,13.57
2018-09-21T05:57:08.247Z,15.90
2018-09-21T05:59:36.790Z,16.23
2018-09-21T06:02:05.314Z,14.43
2018-09-21T06:04:34.302Z,13.43
2018-09-21T06:07:02.899Z,13.63
2018-09-21T06:09:31.378Z,14.07
2018-09-21T06:11:59.949Z,13.10
2018-09-21T06:14:28.427Z,17.93
2018-09-21T06:16:56.941Z,22.07
2018-09-21T06:19:26.378Z,21.03
2018-09-21T06:21:55.322Z,14.97
2018-09-21T06:24:24.639Z,16.37
2018-09-21T06:26:54.178Z,13.97
2018-09-21T06:29:22.740Z,16.37
2018-09-21T06:31:51.631Z,16.47
2018-09-21T06:34:20.570Z,22.83
2018-09-21T06:36:49.339Z,17.93
2018-09-21T06:39:17.838Z,18.43
2018-09-21T06:41:46.404Z,19.67
2018-09-21T06:44:14.919Z,14.90
2018-09-21T06:46:43.426Z,18.27
2018-09-21T06:49:12.128Z,14.60
2018-09-21T06:51:40.818Z,16.67
2018-09-21T06:54:09.322Z,20.23
2018-09-21T06:56:38.174Z,20.67
2018-09-21T06:59:06.709Z,16.93
2018-09-21T07:01:35.261Z,17.33
2018-09-21T07:04:03.895Z,21.50
2018-09-21T07:06:32.566Z,16.93
2018-09-21T07:09:01.267Z,19.50
2018-09-21T07:11:30.040Z,15.97
2018-09-21T07:13:58.914Z,16.13
2018-09-21T07:16:27.424Z,19.97
2018-09-21T07:18:56.402Z,18.23
2018-09-21T07:21:24.903Z,21.27
2018-09-21T07:23:53.687Z,14.07
2018-09-21T07:26:22.687Z,13.10
2018-09-21T07:28:51.365Z,14.37
2018-09-21T07:31:19.939Z,12.90
2018-09-21T07:33:51.987Z,14.03
2018-09-21T07:36:21.109Z,14.27
2018-09-21T07:38:50.086Z,15.37
2018-09-21T07:41:18.666Z,17.90
2018-09-21T07:43:47.773Z,11.87
2018-09-21T07:46:16.550Z,13.23
2018-09-21T07:48:45.083Z,17.10
2018-09-21T07:51:13.631Z,12.73
2018-09-21T07:53:42.197Z,14.85
2018-09-21T07:56:10.715Z,15.93
2018-09-21T07:58:39.178Z,18.23
2018-09-21T08:01:07.935Z,14.80
2018-09-21T08:03:36.388Z,13.25
2018-09-21T08:06:04.937Z,12.68
2018-09-21T08:08:33.793Z,14.53
2018-09-21T08:11:02.260Z,12.77
2018-09-21T08:13:30.740Z,13.03
2018-09-21T08:15:59.805Z,16.27
2018-09-21T08:18:28.283Z,14.30
2018-09-21T08:20:57.852Z,15.73
2018-09-21T08:23:26.822Z,14.40
2018-09-21T08:25:55.755Z,14.60
2018-09-21T08:28:24.295Z,12.05
2018-09-21T08:30:53.675Z,11.70
2018-09-21T08:33:22.935Z,12.93
2018-09-21T08:35:51.489Z,13.05
2018-09-21T08:38:21.125Z,14.13
2018-09-21T08:40:49.649Z,11.15
2018-09-21T08:43:18.209Z,14.85
2018-09-21T08:45:47.147Z,11.50
2018-09-21T08:48:15.845Z,15.13
2018-09-21T08:50:44.334Z,15.53
2018-09-21T08:53:13.105Z,12.78
2018-09-21T08:55:47.882Z,14.83
2018-09-21T08:58:16.713Z,11.95
2018-09-21T09:00:45.157Z,11.63
2018-09-21T09:03:13.755Z,12.20
2018-09-21T09:05:42.745Z,18.12
2018-09-21T09:08:12.509Z,11.75
2018-09-21T09:10:41.183Z,15.20
2018-09-21T09:13:09.957Z,29.80
2018-09-21T09:15:38.501Z,24.32
2018-09-21T09:18:06.765Z,18.30
2018-09-21T09:20:35.391Z,24.12
2018-09-21T09:23:03.918Z,25.80
2018-09-21T09:25:32.699Z,16.97
2018-09-21T09:28:01.554Z,15.45
2018-09-21T09:30:29.999Z,20.80
2018-09-21T09:32:59.400Z,22.98
2018-09-21T09:35:28.217Z,20.65
2018-09-21T09:37:57.778Z,12.03
2018-09-21T09:40:27.262Z,16.70
2018-09-21T09:42:56.981Z,12.78
2018-09-21T09:45:25.950Z,18.70
2018-09-21T09:47:54.481Z,13.40
2018-09-21T09:50:23.403Z,20.70
2018-09-21T09:52:52.012Z,15.20
2018-09-21T09:55:20.479Z,15.53
2018-09-21T09:57:49.069Z,16.25
2018-09-21T10:00:21.698Z,14.73
2018-09-21T10:02:50.421Z,20.20
2018-09-21T10:05:19.238Z,16.70
2018-09-21T10:07:47.769Z,16.90
2018-09-21T10:10:16.832Z,20.82
2018-09-21T10:12:45.362Z,14.87
2018-09-21T10:15:13.864Z,16.00
2018-09-21T10:17:42.533Z,16.32
2018-09-21T10:20:11.073Z,19.23
2018-09-21T10:22:39.777Z,19.75
2018-09-21T10:25:08.712Z,13.83
2018-09-21T10:27:37.609Z,13.58
2018-09-21T10:30:06.086Z,16.55
2018-09-21T10:32:35.059Z,21.85
2018-09-21T10:35:03.835Z,15.10
2018-09-21T10:37:32.424Z,16.95
2018-09-21T10:40:01.183Z,18.60
2018-09-21T10:42:29.753Z,14.80
2018-09-21T10:44:58.265Z,22.40
2018-09-21T10:47:28.781Z,17.50
2018-09-21T10:49:57.299Z,27.27
2018-09-21T10:52:26.163Z,13.62
2018-09-21T10:54:55.603Z,16.77
2018-09-21T10:57:24.099Z,12.60
2018-09-21T10:59:52.593Z,15.88
2018-09-21T11:02:21.438Z,10.78
2018-09-21T11:04:49.966Z,14.60
2018-09-21T11:07:18.504Z,16.42
2018-09-21T11:09:47.074Z,19.23
2018-09-21T11:12:15.645Z,16.95
2018-09-21T11:14:44.161Z,16.77
2018-09-21T11:17:12.843Z,14.60
2018-09-21T11:19:41.302Z,14.70
2018-09-21T11:22:09.789Z,11.68
2018-09-21T11:24:38.885Z,12.60
2018-09-21T11:27:07.355Z,11.97
2018-09-21T11:29:36.005Z,14.63
2018-09-21T11:32:05.048Z,12.70
2018-09-21T11:34:33.525Z,11.15
2018-09-21T11:37:02.574Z,11.45
2018-09-21T11:39:31.339Z,13.20
2018-09-21T11:41:59.778Z,14.03
2018-09-21T11:44:29.497Z,12.93
2018-09-21T11:46:58.367Z,11.25
2018-09-21T11:49:26.771Z,10.40
2018-09-21T11:51:55.257Z,10.05
2018-09-21T11:54:24.709Z,13.08
2018-09-21T11:56:53.179Z,11.70
2018-09-21T11:59:21.724Z,14.50
2018-09-21T12:01:50.473Z,14.30
2018-09-21T12:04:19.480Z,12.63
2018-09-21T12:06:48.001Z,10.90
2018-09-21T12:09:16.758Z,16.95
2018-09-21T12:11:45.233Z,12.13
2018-09-21T12:14:13.736Z,12.25
2018-09-21T12:16:42.530Z,12.03
2018-09-21T12:19:11.208Z,12.00
2018-09-21T12:21:39.670Z,15.75
2018-09-21T12:24:08.592Z,8.95
2018-09-21T12:26:37.089Z,11.28
2018-09-21T12:29:05.588Z,13.18
2018-09-21T12:31:34.315Z,13.10
2018-09-21T12:34:03.163Z,12.03
2018-09-21T12:36:31.933Z,10.08
2018-09-21T12:39:00.933Z,13.72
2018-09-21T12:41:29.464Z,12.05
2018-09-21T12:43:57.949Z,13.15
2018-09-21T12:46:28.054Z,11.80
2018-09-21T12:49:05.585Z,10.70
2018-09-21T12:51:34.850Z,18.75
2018-09-21T12:54:03.301Z,13.60
2018-09-21T12:56:32.075Z,11.33
2018-09-21T12:59:00.582Z,13.70
2018-09-21T13:01:29.054Z,10.48
2018-09-21T13:03:57.780Z,8.10
2018-09-21T13:06:27.399Z,20.52
2018-09-21T13:08:56.439Z,11.40
2018-09-21T13:11:31.521Z,11.30
2018-09-21T13:13:59.987Z,11.88
2018-09-21T13:16:28.446Z,13.93
2018-09-21T13:18:57.021Z,7.92
2018-09-21T13:21:25.554Z,14.93
2018-09-21T13:23:54.102Z,12.70
2018-09-21T13:26:22.870Z,11.00
2018-09-21T13:28:51.342Z,11.38
2018-09-21T13:31:19.985Z,10.32
2018-09-21T13:33:49.093Z,14.98
2018-09-21T13:36:17.551Z,12.20
2018-09-21T13:38:45.991Z,12.00
2018-09-21T13:41:14.974Z,12.05
2018-09-21T13:43:43.496Z,15.45
2018-09-21T13:46:11.998Z,9.65
2018-09-21T13:48:41.133Z,15.78
2018-09-21T13:51:09.613Z,15.53
2018-09-21T13:53:38.099Z,13.32
2018-09-21T13:56:07.555Z,15.50
2018-09-21T13:58:36.069Z,12.78
2018-09-21T14:01:04.521Z,12.03
2018-09-21T14:03:33.321Z,13.43
2018-09-21T14:06:05.313Z,14.33
2018-09-21T14:08:34.602Z,12.90
2018-09-21T14:11:03.265Z,15.85
2018-09-21T14:13:31.736Z,15.78
2018-09-21T14:16:00.310Z,14.23
2018-09-21T14:18:28.939Z,19.35
2018-09-21T14:20:57.446Z,16.95
2018-09-21T14:23:25.957Z,13.98
2018-09-21T14:25:54.843Z,12.73
2018-09-21T14:28:23.337Z,13.70
2018-09-21T14:30:51.918Z,19.12
2018-09-21T14:33:20.893Z,13.53
2018-09-21T14:35:49.472Z,19.10
2018-09-21T14:38:17.931Z,22.37
2018-09-21T14:40:46.569Z,20.43
2018-09-21T14:43:15.482Z,14.47
2018-09-21T14:45:43.977Z,11.63
2018-09-21T14:48:12.613Z,20.55
2018-09-21T14:50:41.365Z,16.00
2018-09-21T14:53:09.898Z,14.18
2018-09-21T14:55:38.431Z,12.82
2018-09-21T14:58:07.041Z,15.80
2018-09-21T15:00:35.661Z,14.60
2018-09-21T15:03:04.257Z,14.47
2018-09-21T15:05:32.753Z,11.30
2018-09-21T15:08:01.237Z,10.98
2018-09-21T15:10:30.158Z,10.70
2018-09-21T15:12:58.622Z,14.10
2018-09-21T15:15:27.165Z,11.53
2018-09-21T15:17:56.709Z,14.73
2018-09-21T15:20:25.298Z,14.83
2018-09-21T15:22:53.803Z,11.68
2018-09-21T15:25:22.982Z,12.98
2018-09-21T15:27:51.451Z,12.78
2018-09-21T15:30:20.072Z,12.47
2018-09-21T15:32:48.934Z,12.33
2018-09-21T15:35:17.402Z,13.03
2018-09-21T15:37:45.953Z,11.35
2018-09-21T15:40:14.706Z,16.20
2018-09-21T15:42:43.584Z,15.05
2018-09-21T15:45:12.622Z,12.43
2018-09-21T15:47:41.206Z,9.75
2018-09-21T15:50:10.032Z,14.73
2018-09-21T15:52:38.686Z,18.87
2018-09-21T15:55:07.425Z,15.65
2018-09-21T15:57:35.993Z,11.75
2018-09-21T16:00:04.900Z,13.70
2018-09-21T16:02:33.831Z,12.05
2018-09-21T16:05:02.306Z,12.70
2018-09-21T16:07:30.841Z,13.45
2018-09-21T16:09:59.400Z,13.38
2018-09-21T16:12:27.901Z,10.78
2018-09-21T16:14:57.047Z,10.98
2018-09-21T16:17:26.222Z,12.23
2018-09-21T16:19:54.705Z,14.15
2018-09-21T16:22:23.276Z,13.28
2018-09-21T16:24:51.789Z,12.10
2018-09-21T16:27:20.269Z,15.28
2018-09-21T16:29:48.738Z,12.88
2018-09-21T16:32:17.247Z,14.07
2018-09-21T16:34:45.703Z,10.78
2018-09-21T16:37:14.218Z,12.55
2018-09-21T16:39:43.221Z,13.05
2018-09-21T16:42:11.657Z,11.63
2018-09-21T16:44:40.351Z,9.68
2018-09-21T16:47:08.982Z,13.25
2018-09-21T16:49:37.523Z,14.65
2018-09-21T16:52:06.052Z,11.40
2018-09-21T16:54:34.934Z,10.55
2018-09-21T16:57:03.397Z,13.40
2018-09-21T16:59:31.878Z,9.95
2018-09-21T17:02:00.705Z,14.23
2018-09-21T17:04:29.245Z,12.53
2018-09-21T17:06:57.734Z,10.20
2018-09-21T17:09:27.078Z,10.25
2018-09-21T17:11:55.569Z,13.05
2018-09-21T17:14:24.561Z,16.27
2018-09-21T17:16:53.415Z,12.05
2018-09-21T17:19:22.146Z,11.57
2018-09-21T17:21:50.938Z,12.55
2018-09-21T17:24:19.619Z,16.45
2018-09-21T17:26:48.278Z,11.40
2018-09-21T17:29:16.777Z,14.93
2018-09-21T17:31:46.188Z,13.20
2018-09-21T17:34:14.654Z,15.00
2018-09-21T17:36:43.115Z,13.98
2018-09-21T17:39:12.909Z,14.60
2018-09-21T17:41:41.793Z,14.05
2018-09-21T17:44:10.469Z,16.50
2018-09-21T17:46:39.266Z,14.87
2018-09-21T17:49:08.312Z,10.13
2018-09-21T17:51:36.961Z,16.57
2018-09-21T17:54:05.491Z,15.98
2018-09-21T17:56:34.097Z,15.65
2018-09-21T17:59:02.582Z,14.45
2018-09-21T18:01:31.193Z,13.65
2018-09-21T18:03:59.654Z,12.53
2018-09-21T18:06:28.184Z,15.80
2018-09-21T18:08:57.876Z,14.07
2018-09-21T18:11:27.049Z,14.73
2018-09-21T18:13:56.435Z,13.22
2018-09-21T18:16:25.078Z,11.68
2018-09-21T18:18:53.544Z,16.77
2018-09-21T18:21:22.029Z,15.20
2018-09-21T18:23:50.553Z,15.58
2018-09-21T18:26:19.034Z,24.27
2018-09-21T18:28:47.514Z,19.15
2018-09-21T18:31:16.081Z,21.73
2018-09-21T18:33:44.589Z,9.95
2018-09-21T18:36:13.071Z,19.47
2018-09-21T18:38:41.627Z,10.33
2018-09-21T18:41:10.167Z,6.87
2018-09-21T18:43:38.779Z,3.50
2018-09-21T18:46:07.645Z,4.70
2018-09-21T18:48:36.101Z,4.73
2018-09-21T18:51:05.011Z,5.33
2018-09-21T18:53:33.680Z,5.17
2018-09-21T18:56:02.152Z,4.33
2018-09-21T18:58:30.793Z,5.23
2018-09-21T19:00:59.525Z,5.07
2018-09-21T19:03:27.998Z,7.40
2018-09-21T19:05:57.022Z,4.73
2018-09-21T19:08:26.724Z,6.83
2018-09-21T19:10:55.193Z,7.43
2018-09-21T19:13:24.414Z,4.93
2018-09-21T19:15:53.079Z,8.80
2018-09-21T19:18:21.531Z,5.70
2018-09-21T19:20:50.019Z,5.53
2018-09-21T19:23:18.936Z,3.37
2018-09-21T19:25:47.411Z,5.03
2018-09-21T19:28:16.595Z,6.20
2018-09-21T19:30:45.486Z,7.10
2018-09-21T19:33:13.970Z,6.57
2018-09-21T19:35:42.780Z,6.00
2018-09-21T19:38:11.548Z,5.17
2018-09-21T19:40:40.088Z,6.37
2018-09-21T19:43:08.671Z,6.17
2018-09-21T19:45:37.410Z,5.00
2018-09-21T19:48:06.093Z,5.30
2018-09-21T19:50:34.562Z,3.73
2018-09-21T19:53:04.547Z,4.37
2018-09-21T19:55:33.087Z,5.90
2018-09-21T19:58:01.597Z,6.93
2018-09-21T20:00:31.041Z,6.67
2018-09-21T20:02:59.744Z,3.67
2018-09-21T20:05:28.272Z,4.53
2018-09-21T20:07:58.328Z,4.37
2018-09-21T20:10:27.081Z,6.53
2018-09-21T20:12:55.601Z,4.37
2018-09-21T20:15:24.614Z,6.90
2018-09-21T20:17:53.105Z,4.53
2018-09-21T20:20:21.745Z,3.70
2018-09-21T20:22:50.745Z,4.63
2018-09-21T20:25:19.270Z,7.30
2018-09-21T20:27:47.721Z,4.77
2018-09-21T20:30:21.406Z,7.13
2018-09-21T20:32:55.340Z,7.87
2018-09-21T20:35:24.862Z,3.50
2018-09-21T20:37:53.669Z,7.27
2018-09-21T20:40:22.378Z,6.77
2018-09-21T20:42:50.909Z,6.70
2018-09-21T20:45:19.397Z,6.50
2018-09-21T20:47:47.921Z,6.03
2018-09-21T20:50:16.656Z,8.70
2018-09-21T20:52:45.119Z,9.70
2018-09-21T20:55:14.022Z,7.23
2018-09-21T20:57:42.794Z,4.10
2018-09-21T21:00:11.345Z,5.60
2018-09-21T21:02:40.032Z,9.43
2018-09-21T21:05:09.201Z,2.67
2018-09-21T21:07:37.654Z,4.90
2018-09-21T21:10:06.372Z,8.97
2018-09-21T21:12:35.213Z,5.57
2018-09-21T21:15:03.753Z,3.50
2018-09-21T21:17:32.714Z,5.53
2018-09-21T21:20:01.582Z,4.97
2018-09-21T21:22:30.062Z,6.33
2018-09-21T21:24:58.882Z,9.20
2018-09-21T21:27:27.925Z,5.90
2018-09-21T21:29:56.978Z,3.50
2018-09-21T21:32:26.071Z,8.87
2018-09-21T21:34:54.844Z,7.33
2018-09-21T21:37:23.307Z,2.70
2018-09-21T21:39:51.896Z,7.70
2018-09-21T21:42:20.685Z,6.47
2018-09-21T21:44:50.162Z,6.40
2018-09-21T21:47:18.680Z,6.90
2018-09-21T21:49:47.259Z,7.23
2018-09-21T21:52:15.765Z,8.30
2018-09-21T21:54:44.329Z,6.90
2018-09-21T21:57:13.253Z,10.67
2018-09-21T21:59:42.044Z,7.73
2018-09-21T22:02:14.075Z,7.00
2018-09-21T22:04:43.109Z,7.87
2018-09-21T22:07:12.770Z,12.53
2018-09-21T22:09:41.292Z,9.13
2018-09-21T22:12:14.953Z,7.40
2018-09-21T22:14:43.626Z,10.93
2018-09-21T22:17:12.139Z,8.00
2018-09-21T22:19:40.797Z,11.27
2018-09-21T22:22:09.452Z,8.87
2018-09-21T22:24:37.954Z,11.70
2018-09-21T22:27:06.451Z,10.67
2018-09-21T22:29:35.013Z,9.57
2018-09-21T22:32:03.529Z,8.00
2018-09-21T22:34:32.026Z,6.53
2018-09-21T22:37:01.192Z,14.20
2018-09-21T22:39:29.705Z,9.03
2018-09-21T22:41:58.229Z,8.43
2018-09-21T22:44:28.151Z,12.17
2018-09-21T22:46:56.640Z,7.10
2018-09-21T22:49:25.881Z,12.07
2018-09-21T22:51:54.887Z,10.30
2018-09-21T22:54:23.344Z,12.47
2018-09-21T22:56:51.840Z,10.30
2018-09-21T22:59:21.137Z,7.80
2018-09-21T23:01:49.645Z,12.40
2018-09-21T23:04:18.131Z,10.50
2018-09-21T23:06:47.266Z,13.70
2018-09-21T23:09:15.717Z,9.07
2018-09-21T23:11:44.254Z,12.53
2018-09-21T23:14:13.039Z,13.97
2018-09-21T23:16:41.528Z,10.30
2018-09-21T23:19:10.560Z,7.23
2018-09-21T23:21:39.441Z,11.33
2018-09-21T23:24:07.890Z,9.30
2018-09-21T23:26:36.767Z,10.30
2018-09-21T23:29:05.394Z,10.23
2018-09-21T23:31:33.960Z,14.53
2018-09-21T23:34:02.489Z,9.17
2018-09-21T23:36:31.056Z,11.03
2018-09-21T23:38:59.565Z,11.20
2018-09-21T23:41:28.042Z,10.23
2018-09-21T23:43:56.597Z,11.97
2018-09-21T23:46:25.645Z,12.80
2018-09-21T23:48:54.336Z,12.27
2018-09-21T23:51:23.255Z,10.47
2018-09-21T23:53:51.795Z,9.20
2018-09-21T23:56:20.313Z,10.57
2018-09-21T23:58:49.397Z,10.83
